sensor_id;sensor_type;location;lat;lon;timestamp;pressure;altitude;pressure_sealevel;temperature;humidity
59409;BME280;45213;32.654;-115.458;2022-09-09T00:04:09;100175.56;;;37.17;24.02
59409;BME280;45213;32.654;-115.458;2022-09-09T00:09:53;100163.66;;;37.27;24.01
59409;BME280;45213;32.654;-115.458;2022-09-09T00:12:47;100170.47;;;37.23;23.91
59409;BME280;45213;32.654;-115.458;2022-09-09T00:15:23;100173.72;;;37.10;24.07
59409;BME280;45213;32.654;-115.458;2022-09-09T00:18:14;100169.13;;;37.10;23.91
59409;BME280;45213;32.654;-115.458;2022-09-09T00:21:01;100157.59;;;37.16;24.18
59409;BME280;45213;32.654;-115.458;2022-09-09T00:23:39;100166.78;;;37.07;23.55
59409;BME280;45213;32.654;-115.458;2022-09-09T00:26:42;100166.91;;;37.06;24.31
59409;BME280;45213;32.654;-115.458;2022-09-09T00:32:09;100163.34;;;37.05;24.42
59409;BME280;45213;32.654;-115.458;2022-09-09T00:34:44;100161.00;;;36.94;24.93
59409;BME280;45213;32.654;-115.458;2022-09-09T00:37:11;100161.66;;;37.04;24.39
59409;BME280;45213;32.654;-115.458;2022-09-09T00:39:41;100149.47;;;37.08;24.68
59409;BME280;45213;32.654;-115.458;2022-09-09T00:42:29;100137.63;;;36.93;25.10
59409;BME280;45213;32.654;-115.458;2022-09-09T00:53:30;100131.53;;;36.91;26.03
59409;BME280;45213;32.654;-115.458;2022-09-09T00:56:06;100131.84;;;36.88;25.57
59409;BME280;45213;32.654;-115.458;2022-09-09T00:58:35;100134.91;;;36.85;25.71
59409;BME280;45213;32.654;-115.458;2022-09-09T01:01:05;100138.66;;;36.75;25.44
59409;BME280;45213;32.654;-115.458;2022-09-09T01:06:22;100147.81;;;36.74;25.82
59409;BME280;45213;32.654;-115.458;2022-09-09T01:09:05;100141.91;;;36.71;26.33
59409;BME280;45213;32.654;-115.458;2022-09-09T01:16:45;100134.94;;;36.60;26.29
59409;BME280;45213;32.654;-115.458;2022-09-09T01:19:20;100132.72;;;36.55;26.70
59409;BME280;45213;32.654;-115.458;2022-09-09T01:27:59;100122.22;;;36.44;26.39
59409;BME280;45213;32.654;-115.458;2022-09-09T01:30:28;100127.31;;;36.39;26.57
59409;BME280;45213;32.654;-115.458;2022-09-09T01:32:58;100126.63;;;36.29;26.79
59409;BME280;45213;32.654;-115.458;2022-09-09T01:37:53;100122.06;;;36.29;26.14
59409;BME280;45213;32.654;-115.458;2022-09-09T01:40:20;100124.44;;;36.24;26.93
59409;BME280;45213;32.654;-115.458;2022-09-09T01:42:48;100119.34;;;36.13;26.88
59409;BME280;45213;32.654;-115.458;2022-09-09T01:45:15;100129.50;;;36.11;26.89
59409;BME280;45213;32.654;-115.458;2022-09-09T01:47:45;100113.91;;;36.05;26.81
59409;BME280;45213;32.654;-115.458;2022-09-09T01:50:44;100119.31;;;36.05;26.55
59409;BME280;45213;32.654;-115.458;2022-09-09T01:53:13;100120.00;;;36.07;26.77
59409;BME280;45213;32.654;-115.458;2022-09-09T01:55:57;100127.25;;;36.06;26.84
59409;BME280;45213;32.654;-115.458;2022-09-09T01:58:41;100121.84;;;36.06;26.53
59409;BME280;45213;32.654;-115.458;2022-09-09T02:03:39;100124.72;;;35.88;27.12
59409;BME280;45213;32.654;-115.458;2022-09-09T02:08:53;100124.31;;;35.67;28.11
59409;BME280;45213;32.654;-115.458;2022-09-09T02:11:26;100114.78;;;35.54;28.94
59409;BME280;45213;32.654;-115.458;2022-09-09T02:14:07;100128.63;;;35.51;28.68
59409;BME280;45213;32.654;-115.458;2022-09-09T02:16:47;100131.19;;;35.53;28.07
59409;BME280;45213;32.654;-115.458;2022-09-09T02:19:27;100130.66;;;35.49;28.40
59409;BME280;45213;32.654;-115.458;2022-09-09T02:22:02;100139.59;;;35.42;28.51
59409;BME280;45213;32.654;-115.458;2022-09-09T02:24:33;100142.47;;;35.40;28.10
59409;BME280;45213;32.654;-115.458;2022-09-09T02:27:18;100152.97;;;35.43;28.25
59409;BME280;45213;32.654;-115.458;2022-09-09T02:29:49;100137.03;;;35.32;27.85
59409;BME280;45213;32.654;-115.458;2022-09-09T02:32:24;100144.81;;;35.35;28.07
59409;BME280;45213;32.654;-115.458;2022-09-09T02:35:09;100155.31;;;35.38;28.54
59409;BME280;45213;32.654;-115.458;2022-09-09T02:37:42;100152.28;;;35.41;27.37
59409;BME280;45213;32.654;-115.458;2022-09-09T02:40:15;100157.22;;;35.46;27.85
59409;BME280;45213;32.654;-115.458;2022-09-09T02:42:48;100164.31;;;35.47;27.79
59409;BME280;45213;32.654;-115.458;2022-09-09T02:45:20;100167.56;;;35.50;27.63
59409;BME280;45213;32.654;-115.458;2022-09-09T02:48:21;100166.72;;;35.50;27.06
59409;BME280;45213;32.654;-115.458;2022-09-09T02:51:18;100174.66;;;35.51;27.22
59409;BME280;45213;32.654;-115.458;2022-09-09T02:56:38;100184.09;;;35.47;27.42
59409;BME280;45213;32.654;-115.458;2022-09-09T02:59:07;100180.06;;;35.43;28.13
59409;BME280;45213;32.654;-115.458;2022-09-09T03:01:35;100192.56;;;35.44;27.54
59409;BME280;45213;32.654;-115.458;2022-09-09T03:04:03;100200.00;;;35.42;27.90
59409;BME280;45213;32.654;-115.458;2022-09-09T03:06:32;100205.75;;;35.39;28.25
59409;BME280;45213;32.654;-115.458;2022-09-09T03:09:08;100202.13;;;35.30;28.10
59409;BME280;45213;32.654;-115.458;2022-09-09T03:11:37;100207.19;;;35.25;28.57
59409;BME280;45213;32.654;-115.458;2022-09-09T03:14:07;100211.38;;;35.20;28.53
59409;BME280;45213;32.654;-115.458;2022-09-09T03:16:36;100213.38;;;35.18;28.75
59409;BME280;45213;32.654;-115.458;2022-09-09T03:19:03;100212.31;;;35.10;28.81
59409;BME280;45213;32.654;-115.458;2022-09-09T03:21:30;100213.47;;;35.08;29.16
59409;BME280;45213;32.654;-115.458;2022-09-09T03:23:57;100224.91;;;35.02;28.98
59409;BME280;45213;32.654;-115.458;2022-09-09T03:26:23;100229.81;;;34.98;29.10
59409;BME280;45213;32.654;-115.458;2022-09-09T03:28:50;100223.16;;;34.92;29.53
59409;BME280;45213;32.654;-115.458;2022-09-09T03:31:29;100234.16;;;34.91;29.40
59409;BME280;45213;32.654;-115.458;2022-09-09T03:33:57;100234.31;;;34.89;29.90
59409;BME280;45213;32.654;-115.458;2022-09-09T03:36:26;100238.19;;;34.87;29.87
59409;BME280;45213;32.654;-115.458;2022-09-09T03:38:53;100237.41;;;34.77;29.95
59409;BME280;45213;32.654;-115.458;2022-09-09T03:41:25;100245.22;;;34.80;30.43
59409;BME280;45213;32.654;-115.458;2022-09-09T03:43:53;100251.63;;;34.79;30.23
59409;BME280;45213;32.654;-115.458;2022-09-09T03:46:23;100258.06;;;34.78;30.09
59409;BME280;45213;32.654;-115.458;2022-09-09T03:48:51;100261.06;;;34.75;29.96
59409;BME280;45213;32.654;-115.458;2022-09-09T03:51:21;100254.28;;;34.70;30.22
59409;BME280;45213;32.654;-115.458;2022-09-09T03:53:48;100265.38;;;34.67;30.34
59409;BME280;45213;32.654;-115.458;2022-09-09T03:56:15;100261.72;;;34.59;30.33
59409;BME280;45213;32.654;-115.458;2022-09-09T03:58:42;100268.00;;;34.59;30.44
59409;BME280;45213;32.654;-115.458;2022-09-09T04:01:12;100269.16;;;34.57;30.27
59409;BME280;45213;32.654;-115.458;2022-09-09T04:03:41;100272.31;;;34.52;30.45
59409;BME280;45213;32.654;-115.458;2022-09-09T04:06:09;100271.78;;;34.48;30.39
59409;BME280;45213;32.654;-115.458;2022-09-09T04:08:38;100274.94;;;34.44;30.72
59409;BME280;45213;32.654;-115.458;2022-09-09T04:11:06;100275.53;;;34.38;30.78
59409;BME280;45213;32.654;-115.458;2022-09-09T04:13:35;100281.28;;;34.35;30.94
59409;BME280;45213;32.654;-115.458;2022-09-09T04:16:10;100285.50;;;34.37;30.95
59409;BME280;45213;32.654;-115.458;2022-09-09T04:18:38;100279.47;;;34.25;31.13
59409;BME280;45213;32.654;-115.458;2022-09-09T04:21:05;100293.84;;;34.26;31.40
59409;BME280;45213;32.654;-115.458;2022-09-09T04:23:33;100288.75;;;34.23;31.21
59409;BME280;45213;32.654;-115.458;2022-09-09T04:26:10;100281.00;;;34.10;31.46
59409;BME280;45213;32.654;-115.458;2022-09-09T04:28:38;100287.63;;;34.16;31.73
59409;BME280;45213;32.654;-115.458;2022-09-09T04:31:22;100293.34;;;34.13;32.01
59409;BME280;45213;32.654;-115.458;2022-09-09T04:33:52;100289.94;;;34.10;31.58
59409;BME280;45213;32.654;-115.458;2022-09-09T04:36:20;100295.63;;;34.07;32.29
59409;BME280;45213;32.654;-115.458;2022-09-09T04:38:49;100289.41;;;33.97;32.22
59409;BME280;45213;32.654;-115.458;2022-09-09T04:41:17;100293.66;;;34.00;32.81
59409;BME280;45213;32.654;-115.458;2022-09-09T04:43:46;100299.66;;;33.94;32.72
59409;BME280;45213;32.654;-115.458;2022-09-09T04:46:15;100300.50;;;33.94;33.37
59409;BME280;45213;32.654;-115.458;2022-09-09T04:48:48;100302.50;;;33.92;32.75
59409;BME280;45213;32.654;-115.458;2022-09-09T04:51:16;100291.56;;;33.94;32.48
59409;BME280;45213;32.654;-115.458;2022-09-09T04:53:47;100289.84;;;33.93;33.22
59409;BME280;45213;32.654;-115.458;2022-09-09T04:56:26;100287.47;;;33.89;33.16
59409;BME280;45213;32.654;-115.458;2022-09-09T04:58:57;100295.69;;;33.88;32.91
59409;BME280;45213;32.654;-115.458;2022-09-09T05:01:34;100283.22;;;33.87;32.92
59409;BME280;45213;32.654;-115.458;2022-09-09T05:04:04;100283.50;;;33.84;32.76
59409;BME280;45213;32.654;-115.458;2022-09-09T05:06:32;100286.09;;;33.76;32.98
59409;BME280;45213;32.654;-115.458;2022-09-09T05:09:25;100287.09;;;33.75;33.12
59409;BME280;45213;32.654;-115.458;2022-09-09T05:11:52;100282.84;;;33.72;33.20
59409;BME280;45213;32.654;-115.458;2022-09-09T05:14:35;100285.00;;;33.68;33.03
59409;BME280;45213;32.654;-115.458;2022-09-09T05:17:05;100285.84;;;33.69;33.46
59409;BME280;45213;32.654;-115.458;2022-09-09T05:19:33;100259.13;;;33.56;33.33
59409;BME280;45213;32.654;-115.458;2022-09-09T05:22:01;100274.22;;;33.59;33.55
59409;BME280;45213;32.654;-115.458;2022-09-09T05:24:35;100256.06;;;33.41;33.56
59409;BME280;45213;32.654;-115.458;2022-09-09T05:27:04;100280.19;;;33.43;33.63
59409;BME280;45213;32.654;-115.458;2022-09-09T05:29:39;100279.09;;;33.45;33.78
59409;BME280;45213;32.654;-115.458;2022-09-09T05:32:09;100269.72;;;33.40;33.95
59409;BME280;45213;32.654;-115.458;2022-09-09T05:34:36;100274.25;;;33.39;34.24
59409;BME280;45213;32.654;-115.458;2022-09-09T05:37:05;100274.84;;;33.33;34.38
59409;BME280;45213;32.654;-115.458;2022-09-09T05:39:33;100271.44;;;33.31;34.20
59409;BME280;45213;32.654;-115.458;2022-09-09T05:42:00;100272.16;;;33.23;34.41
59409;BME280;45213;32.654;-115.458;2022-09-09T05:44:28;100273.44;;;33.19;34.83
59409;BME280;45213;32.654;-115.458;2022-09-09T05:46:55;100275.16;;;33.11;35.19
59409;BME280;45213;32.654;-115.458;2022-09-09T05:49:23;100272.31;;;33.02;35.53
59409;BME280;45213;32.654;-115.458;2022-09-09T05:51:50;100277.69;;;32.93;36.17
59409;BME280;45213;32.654;-115.458;2022-09-09T05:54:18;100273.44;;;32.90;36.13
59409;BME280;45213;32.654;-115.458;2022-09-09T05:56:49;100285.69;;;32.84;36.38
59409;BME280;45213;32.654;-115.458;2022-09-09T05:59:17;100289.06;;;32.77;36.79
59409;BME280;45213;32.654;-115.458;2022-09-09T06:01:44;100288.81;;;32.80;37.00
59409;BME280;45213;32.654;-115.458;2022-09-09T06:04:21;100274.03;;;32.74;37.21
59409;BME280;45213;32.654;-115.458;2022-09-09T06:06:49;100261.28;;;32.57;37.23
59409;BME280;45213;32.654;-115.458;2022-09-09T06:09:18;100284.81;;;32.64;37.62
59409;BME280;45213;32.654;-115.458;2022-09-09T06:11:45;100285.38;;;32.58;37.96
59409;BME280;45213;32.654;-115.458;2022-09-09T06:14:15;100283.25;;;32.52;38.34
59409;BME280;45213;32.654;-115.458;2022-09-09T06:16:46;100282.78;;;32.47;39.08
59409;BME280;45213;32.654;-115.458;2022-09-09T06:19:20;100294.13;;;32.41;39.32
59409;BME280;45213;32.654;-115.458;2022-09-09T06:21:47;100287.44;;;32.35;39.83
59409;BME280;45213;32.654;-115.458;2022-09-09T06:24:15;100292.09;;;32.23;40.47
59409;BME280;45213;32.654;-115.458;2022-09-09T06:26:44;100298.03;;;32.27;40.82
59409;BME280;45213;32.654;-115.458;2022-09-09T06:29:18;100289.22;;;32.15;41.75
59409;BME280;45213;32.654;-115.458;2022-09-09T06:31:45;100287.66;;;32.03;42.68
59409;BME280;45213;32.654;-115.458;2022-09-09T06:34:19;100279.84;;;32.00;42.70
59409;BME280;45213;32.654;-115.458;2022-09-09T06:36:50;100297.22;;;31.96;43.64
59409;BME280;45213;32.654;-115.458;2022-09-09T06:39:18;100307.25;;;31.84;44.80
59409;BME280;45213;32.654;-115.458;2022-09-09T06:41:45;100317.50;;;31.69;45.82
59409;BME280;45213;32.654;-115.458;2022-09-09T06:44:34;100305.91;;;31.69;46.72
59409;BME280;45213;32.654;-115.458;2022-09-09T06:47:05;100299.34;;;31.61;47.25
59409;BME280;45213;32.654;-115.458;2022-09-09T06:49:33;100308.72;;;31.67;48.63
59409;BME280;45213;32.654;-115.458;2022-09-09T06:52:04;100299.88;;;31.34;50.48
59409;BME280;45213;32.654;-115.458;2022-09-09T06:54:31;100310.22;;;31.18;50.81
59409;BME280;45213;32.654;-115.458;2022-09-09T06:56:58;100327.81;;;31.22;50.87
59409;BME280;45213;32.654;-115.458;2022-09-09T06:59:26;100315.41;;;31.10;50.69
59409;BME280;45213;32.654;-115.458;2022-09-09T07:01:55;100318.63;;;31.04;49.56
59409;BME280;45213;32.654;-115.458;2022-09-09T07:04:22;100321.81;;;30.97;49.29
59409;BME280;45213;32.654;-115.458;2022-09-09T07:06:49;100332.72;;;30.96;49.12
59409;BME280;45213;32.654;-115.458;2022-09-09T07:09:20;100332.09;;;30.92;49.15
59409;BME280;45213;32.654;-115.458;2022-09-09T07:11:50;100314.00;;;30.94;48.87
59409;BME280;45213;32.654;-115.458;2022-09-09T07:14:22;100313.78;;;30.86;48.75
59409;BME280;45213;32.654;-115.458;2022-09-09T07:16:55;100318.22;;;30.87;48.79
59409;BME280;45213;32.654;-115.458;2022-09-09T07:19:22;100305.81;;;30.64;49.09
59409;BME280;45213;32.654;-115.458;2022-09-09T07:21:52;100305.53;;;30.67;49.23
59409;BME280;45213;32.654;-115.458;2022-09-09T07:24:21;100321.41;;;30.70;49.52
59409;BME280;45213;32.654;-115.458;2022-09-09T07:26:49;100336.03;;;30.77;49.49
59409;BME280;45213;32.654;-115.458;2022-09-09T07:29:15;100319.94;;;30.66;49.88
59409;BME280;45213;32.654;-115.458;2022-09-09T07:31:44;100316.06;;;30.58;49.73
59409;BME280;45213;32.654;-115.458;2022-09-09T07:34:15;100314.75;;;30.53;50.26
59409;BME280;45213;32.654;-115.458;2022-09-09T07:36:41;100321.22;;;30.50;50.77
59409;BME280;45213;32.654;-115.458;2022-09-09T07:39:13;100331.88;;;30.29;51.81
59409;BME280;45213;32.654;-115.458;2022-09-09T07:41:46;100325.41;;;30.21;52.55
59409;BME280;45213;32.654;-115.458;2022-09-09T07:44:19;100335.16;;;30.10;52.76
59409;BME280;45213;32.654;-115.458;2022-09-09T07:46:50;100326.13;;;30.11;53.42
59409;BME280;45213;32.654;-115.458;2022-09-09T07:49:22;100338.09;;;29.96;54.06
59409;BME280;45213;32.654;-115.458;2022-09-09T07:51:49;100341.75;;;29.95;54.44
59409;BME280;45213;32.654;-115.458;2022-09-09T07:54:19;100326.63;;;29.94;54.35
59409;BME280;45213;32.654;-115.458;2022-09-09T07:56:49;100341.00;;;29.93;55.02
59409;BME280;45213;32.654;-115.458;2022-09-09T07:59:17;100338.59;;;29.90;55.30
59409;BME280;45213;32.654;-115.458;2022-09-09T08:01:49;100338.59;;;29.90;55.46
59409;BME280;45213;32.654;-115.458;2022-09-09T08:04:22;100328.31;;;29.84;55.95
59409;BME280;45213;32.654;-115.458;2022-09-09T08:06:58;100338.56;;;29.79;56.41
59409;BME280;45213;32.654;-115.458;2022-09-09T08:09:27;100337.34;;;29.71;56.55
59409;BME280;45213;32.654;-115.458;2022-09-09T08:12:10;100342.66;;;29.60;57.45
59409;BME280;45213;32.654;-115.458;2022-09-09T08:14:39;100348.19;;;29.70;57.10
59409;BME280;45213;32.654;-115.458;2022-09-09T08:17:06;100328.78;;;29.66;57.41
59409;BME280;45213;32.654;-115.458;2022-09-09T08:19:33;100330.22;;;29.59;57.65
59409;BME280;45213;32.654;-115.458;2022-09-09T08:22:07;100306.22;;;29.58;57.27
59409;BME280;45213;32.654;-115.458;2022-09-09T08:24:37;100314.84;;;29.61;56.55
59409;BME280;45213;32.654;-115.458;2022-09-09T08:27:05;100304.38;;;29.58;56.14
59409;BME280;45213;32.654;-115.458;2022-09-09T08:29:32;100317.53;;;29.50;56.88
59409;BME280;45213;32.654;-115.458;2022-09-09T08:32:00;100313.16;;;29.49;57.66
59409;BME280;45213;32.654;-115.458;2022-09-09T08:34:28;100306.22;;;29.58;58.64
59409;BME280;45213;32.654;-115.458;2022-09-09T08:36:58;100299.38;;;29.53;58.90
59409;BME280;45213;32.654;-115.458;2022-09-09T08:39:33;100295.69;;;29.32;60.01
59409;BME280;45213;32.654;-115.458;2022-09-09T08:44:41;100315.16;;;29.34;60.73
59409;BME280;45213;32.654;-115.458;2022-09-09T08:52:54;100315.38;;;29.20;61.29
59409;BME280;45213;32.654;-115.458;2022-09-09T08:55:28;100316.00;;;29.12;61.58
59409;BME280;45213;32.654;-115.458;2022-09-09T08:58:05;100282.72;;;28.90;61.91
59409;BME280;45213;32.654;-115.458;2022-09-09T09:11:54;100301.88;;;28.97;60.62
59409;BME280;45213;32.654;-115.458;2022-09-09T09:14:31;100308.31;;;28.94;60.24
59409;BME280;45213;32.654;-115.458;2022-09-09T09:17:06;100312.69;;;28.84;60.38
59409;BME280;45213;32.654;-115.458;2022-09-09T09:19:39;100304.66;;;28.84;59.93
59409;BME280;45213;32.654;-115.458;2022-09-09T09:27:33;100310.00;;;28.84;59.62
59409;BME280;45213;32.654;-115.458;2022-09-09T09:30:20;100304.66;;;28.84;59.57
59409;BME280;45213;32.654;-115.458;2022-09-09T09:32:59;100280.19;;;28.65;59.38
59409;BME280;45213;32.654;-115.458;2022-09-09T09:35:28;100303.13;;;28.69;59.30
59409;BME280;45213;32.654;-115.458;2022-09-09T09:37:55;100283.28;;;28.71;59.13
59409;BME280;45213;32.654;-115.458;2022-09-09T09:40:22;100299.44;;;28.70;58.98
59409;BME280;45213;32.654;-115.458;2022-09-09T09:42:52;100310.66;;;28.75;58.65
59409;BME280;45213;32.654;-115.458;2022-09-09T09:48:01;100281.69;;;28.69;58.04
59409;BME280;45213;32.654;-115.458;2022-09-09T09:50:30;100297.50;;;28.72;57.94
59409;BME280;45213;32.654;-115.458;2022-09-09T09:53:00;100318.09;;;28.71;58.24
59409;BME280;45213;32.654;-115.458;2022-09-09T09:55:33;100297.50;;;28.72;58.30
59409;BME280;45213;32.654;-115.458;2022-09-09T09:58:06;100300.94;;;28.74;57.74
59409;BME280;45213;32.654;-115.458;2022-09-09T10:00:52;100304.06;;;28.68;58.26
59409;BME280;45213;32.654;-115.458;2022-09-09T10:03:29;100306.53;;;28.71;58.00
59409;BME280;45213;32.654;-115.458;2022-09-09T10:06:00;100297.63;;;28.70;57.90
59409;BME280;45213;32.654;-115.458;2022-09-09T10:08:27;100301.19;;;28.71;58.04
59409;BME280;45213;32.654;-115.458;2022-09-09T10:19:05;100282.97;;;28.39;61.18
59409;BME280;45213;32.654;-115.458;2022-09-09T10:26:53;100278.47;;;28.27;61.48
59409;BME280;45213;32.654;-115.458;2022-09-09T10:48:52;100242.25;;;28.47;59.55
59409;BME280;45213;32.654;-115.458;2022-09-09T10:57:12;100249.84;;;28.40;58.65
59409;BME280;45213;32.654;-115.458;2022-09-09T10:59:44;100259.47;;;28.43;58.46
59409;BME280;45213;32.654;-115.458;2022-09-09T11:02:21;100255.00;;;28.43;58.38
59409;BME280;45213;32.654;-115.458;2022-09-09T11:05:00;100255.66;;;28.34;58.70
59409;BME280;45213;32.654;-115.458;2022-09-09T11:07:40;100265.06;;;28.40;58.67
59409;BME280;45213;32.654;-115.458;2022-09-09T11:10:29;100274.28;;;28.48;58.31
59409;BME280;45213;32.654;-115.458;2022-09-09T11:13:03;100267.41;;;28.44;58.35
59409;BME280;45213;32.654;-115.458;2022-09-09T11:15:39;100270.19;;;28.43;58.15
59409;BME280;45213;32.654;-115.458;2022-09-09T11:18:14;100275.22;;;28.47;58.42
59409;BME280;45213;32.654;-115.458;2022-09-09T11:20:58;100274.94;;;28.39;58.33
59409;BME280;45213;32.654;-115.458;2022-09-09T11:24:03;100267.84;;;28.38;58.38
59409;BME280;45213;32.654;-115.458;2022-09-09T11:26:46;100272.66;;;28.46;58.79
59409;BME280;45213;32.654;-115.458;2022-09-09T11:29:20;100259.47;;;28.43;58.51
59409;BME280;45213;32.654;-115.458;2022-09-09T11:32:12;100265.25;;;28.49;58.09
59409;BME280;45213;32.654;-115.458;2022-09-09T11:40:41;100259.06;;;28.49;58.17
59409;BME280;45213;32.654;-115.458;2022-09-09T11:43:20;100257.88;;;28.53;58.07
59409;BME280;45213;32.654;-115.458;2022-09-09T11:45:55;100256.03;;;28.53;58.28
59409;BME280;45213;32.654;-115.458;2022-09-09T11:48:41;100271.13;;;28.55;58.29
59409;BME280;45213;32.654;-115.458;2022-09-09T11:51:34;100279.28;;;28.53;58.33
59409;BME280;45213;32.654;-115.458;2022-09-09T11:56:55;100279.41;;;28.51;59.11
59409;BME280;45213;32.654;-115.458;2022-09-09T11:59:25;100293.75;;;28.50;59.38
59409;BME280;45213;32.654;-115.458;2022-09-09T12:17:27;100301.13;;;28.10;65.15
59409;BME280;45213;32.654;-115.458;2022-09-09T12:33:22;100311.84;;;27.72;67.97
59409;BME280;45213;32.654;-115.458;2022-09-09T12:35:55;100320.63;;;27.61;68.62
59409;BME280;45213;32.654;-115.458;2022-09-09T12:38:34;100331.53;;;27.58;69.62
59409;BME280;45213;32.654;-115.458;2022-09-09T12:41:02;100304.56;;;27.35;70.17
59409;BME280;45213;32.654;-115.458;2022-09-09T12:43:29;100325.00;;;27.49;71.59
59409;BME280;45213;32.654;-115.458;2022-09-09T12:46:01;100315.91;;;27.26;71.39
59409;BME280;45213;32.654;-115.458;2022-09-09T12:48:40;100319.03;;;27.18;72.76
59409;BME280;45213;32.654;-115.458;2022-09-09T12:51:25;100298.78;;;26.88;73.51
59409;BME280;45213;32.654;-115.458;2022-09-09T12:53:54;100332.59;;;27.02;74.89
59409;BME280;45213;32.654;-115.458;2022-09-09T12:56:31;100344.66;;;26.95;76.43
59409;BME280;45213;32.654;-115.458;2022-09-09T12:58:58;100337.22;;;26.73;77.78
59409;BME280;45213;32.654;-115.458;2022-09-09T13:01:29;100334.38;;;26.62;78.92
59409;BME280;45213;32.654;-115.458;2022-09-09T13:03:56;100333.03;;;26.69;80.68
59409;BME280;45213;32.654;-115.458;2022-09-09T13:06:28;100334.94;;;26.53;82.63
59409;BME280;45213;32.654;-115.458;2022-09-09T13:08:57;100328.19;;;26.47;84.02
59409;BME280;45213;32.654;-115.458;2022-09-09T13:11:34;100319.66;;;26.28;83.94
59409;BME280;45213;32.654;-115.458;2022-09-09T13:14:02;100326.88;;;26.40;85.97
59409;BME280;45213;32.654;-115.458;2022-09-09T13:16:31;100320.81;;;26.23;86.02
59409;BME280;45213;32.654;-115.458;2022-09-09T13:19:10;100333.84;;;26.28;86.71
59409;BME280;45213;32.654;-115.458;2022-09-09T13:21:40;100323.19;;;26.28;88.50
59409;BME280;45213;32.654;-115.458;2022-09-09T13:24:41;100291.88;;;26.03;89.52
59409;BME280;45213;32.654;-115.458;2022-09-09T13:27:31;100306.03;;;26.18;89.35
59409;BME280;45213;32.654;-115.458;2022-09-09T13:29:57;100306.22;;;26.15;91.23
59409;BME280;45213;32.654;-115.458;2022-09-09T13:32:25;100317.53;;;26.18;91.18
59409;BME280;45213;32.654;-115.458;2022-09-09T13:34:59;100291.69;;;25.92;91.29
59409;BME280;45213;32.654;-115.458;2022-09-09T13:37:34;100328.34;;;26.02;93.24
59409;BME280;45213;32.654;-115.458;2022-09-09T13:40:02;100324.53;;;26.07;93.27
59409;BME280;45213;32.654;-115.458;2022-09-09T13:42:32;100328.91;;;25.93;94.07
59409;BME280;45213;32.654;-115.458;2022-09-09T13:45:01;100351.78;;;25.97;94.72
59409;BME280;45213;32.654;-115.458;2022-09-09T13:47:36;100345.09;;;26.04;95.55
59409;BME280;45213;32.654;-115.458;2022-09-09T13:50:19;100333.50;;;26.06;95.45
59409;BME280;45213;32.654;-115.458;2022-09-09T13:52:47;100309.09;;;25.83;96.71
59409;BME280;45213;32.654;-115.458;2022-09-09T13:55:16;100333.03;;;25.99;96.57
59409;BME280;45213;32.654;-115.458;2022-09-09T13:57:57;100314.06;;;25.89;97.38
59409;BME280;45213;32.654;-115.458;2022-09-09T14:00:29;100340.88;;;25.86;97.33
59409;BME280;45213;32.654;-115.458;2022-09-09T14:02:56;100337.09;;;25.76;97.56
59409;BME280;45213;32.654;-115.458;2022-09-09T14:05:23;100345.09;;;25.76;99.23
59409;BME280;45213;32.654;-115.458;2022-09-09T14:07:50;100354.22;;;25.72;100.00
59409;BME280;45213;32.654;-115.458;2022-09-09T14:10:17;100354.03;;;25.75;100.00
59409;BME280;45213;32.654;-115.458;2022-09-09T14:12:43;100354.91;;;25.75;99.87
59409;BME280;45213;32.654;-115.458;2022-09-09T14:15:11;100369.38;;;25.71;100.00
59409;BME280;45213;32.654;-115.458;2022-09-09T14:17:38;100371.34;;;25.68;100.00
59409;BME280;45213;32.654;-115.458;2022-09-09T14:20:06;100388.59;;;25.62;100.00
59409;BME280;45213;32.654;-115.458;2022-09-09T14:22:36;100380.31;;;25.67;100.00
59409;BME280;45213;32.654;-115.458;2022-09-09T14:25:03;100343.91;;;25.66;100.00
59409;BME280;45213;32.654;-115.458;2022-09-09T14:27:34;100356.31;;;25.67;100.00
59409;BME280;45213;32.654;-115.458;2022-09-09T14:30:01;100356.19;;;25.68;100.00
59409;BME280;45213;32.654;-115.458;2022-09-09T14:32:28;100352.88;;;25.65;100.00
59409;BME280;45213;32.654;-115.458;2022-09-09T14:34:55;100343.75;;;25.69;100.00
59409;BME280;45213;32.654;-115.458;2022-09-09T14:37:22;100343.28;;;25.76;100.00
59409;BME280;45213;32.654;-115.458;2022-09-09T14:39:48;100352.31;;;25.74;100.00
59409;BME280;45213;32.654;-115.458;2022-09-09T14:42:16;100341.09;;;25.69;100.00
59409;BME280;45213;32.654;-115.458;2022-09-09T14:44:43;100334.69;;;25.71;100.00
59409;BME280;45213;32.654;-115.458;2022-09-09T14:47:09;100319.44;;;25.59;100.00
59409;BME280;45213;32.654;-115.458;2022-09-09T14:49:37;100331.56;;;25.65;100.00
59409;BME280;45213;32.654;-115.458;2022-09-09T14:52:04;100333.66;;;25.74;100.00
59409;BME280;45213;32.654;-115.458;2022-09-09T14:54:31;100321.44;;;25.70;100.00
59409;BME280;45213;32.654;-115.458;2022-09-09T14:56:58;100321.44;;;25.70;100.00
59409;BME280;45213;32.654;-115.458;2022-09-09T14:59:25;100328.22;;;25.75;100.00
59409;BME280;45213;32.654;-115.458;2022-09-09T15:01:52;100330.50;;;25.81;100.00
59409;BME280;45213;32.654;-115.458;2022-09-09T15:04:19;100326.59;;;25.73;100.00
59409;BME280;45213;32.654;-115.458;2022-09-09T15:06:46;100314.22;;;25.72;100.00
59409;BME280;45213;32.654;-115.458;2022-09-09T15:09:15;100327.47;;;25.73;100.00
59409;BME280;45213;32.654;-115.458;2022-09-09T15:11:41;100323.16;;;25.71;100.00